PWSweather.com
Personal Weather Stations
Station Observations
DW0493
Castlewood Ranch, Castle Rock, CO

Castlewood RanchCastle Rock, CO

Lat: 39.36264, Lon: -104.79156

Elevation: 6608

Station Type: Davis Pro Vantage 2

http://www.castlerockweather.org

Latest ConditionsUpdated 2:35:03 AM MDT Saturday, Oct 1, 2016
Currently Today's Max Today's Min Today's Average
Temperature 51.3°F10.7°C 51.3°F10.7°C 46.3°F7.9°C 48.6°F9.2°C
Dew Point 44.0°F6.7°C 44.9°F7.2°C 41.5°F5.3°C 43.6°F6.4°C
Winds Calm Calm Calm SWCalm SW - Calm Calm
Wind Gusts -- -- - -
Humidity 76% 88% 76% 83%
Pressure 30.91 in1046.7 mb 31.08 in1052.5 mb 30.80 in1043.0 mb -
Hour Temp Dew Point Humidity Winds Wind Gusts Pressure Precip Precip Rate Daily Precip Total
02:35 AM 51.3°F10.7°C 44.0°F6.7°C 76% Calm Calm -- 30.91 in1046.7 mb 0.00 in0.0 mm 0.00 in0.0 mm 0.00 in0.0 mm
02:30 AM 51.0°F10.6°C 43.7°F6.5°C 76% Calm Calm -- 30.88 in1045.7 mb 0.00 in0.0 mm 0.00 in0.0 mm 0.00 in0.0 mm
02:25 AM 50.7°F10.4°C 43.8°F6.6°C 77% Calm Calm -- 30.90 in1046.4 mb 0.00 in0.0 mm 0.00 in0.0 mm 0.00 in0.0 mm
02:20 AM 50.4°F10.2°C 43.8°F6.6°C 78% Calm Calm -- 30.90 in1046.4 mb 0.00 in0.0 mm 0.00 in0.0 mm 0.00 in0.0 mm
02:15 AM 49.9°F9.9°C 43.7°F6.5°C 79% Calm Calm -- 30.96 in1048.4 mb 0.00 in0.0 mm 0.00 in0.0 mm 0.00 in0.0 mm
02:10 AM 49.4°F9.7°C 43.5°F6.4°C 80% Calm Calm -- 31.04 in1051.1 mb 0.00 in0.0 mm 0.00 in0.0 mm 0.00 in0.0 mm
02:05 AM 48.7°F9.3°C 43.5°F6.4°C 82% Calm Calm -- 31.04 in1051.1 mb 0.00 in0.0 mm 0.00 in0.0 mm 0.00 in0.0 mm
02:00 AM 47.8°F8.8°C 43.2°F6.2°C 84% Calm Calm -- 31.04 in1051.1 mb 0.00 in0.0 mm 0.00 in0.0 mm 0.00 in0.0 mm
01:55 AM 46.9°F8.3°C 42.6°F5.9°C 85% Calm Calm -- 31.05 in1051.5 mb 0.00 in0.0 mm 0.00 in0.0 mm 0.00 in0.0 mm
01:50 AM 46.3°F7.9°C 42.1°F5.6°C 85% Calm Calm -- 30.94 in1047.7 mb 0.00 in0.0 mm 0.00 in0.0 mm 0.00 in0.0 mm
01:45 AM 46.4°F8.0°C 41.5°F5.3°C 83% Calm Calm -- 30.88 in1045.7 mb 0.00 in0.0 mm 0.00 in0.0 mm 0.00 in0.0 mm
01:40 AM 47.2°F8.4°C 41.7°F5.4°C 81% Calm Calm -- 30.80 in1043.0 mb 0.00 in0.0 mm 0.00 in0.0 mm 0.00 in0.0 mm
01:35 AM 48.4°F9.1°C 42.2°F5.7°C 79% Calm Calm -- 30.92 in1047.1 mb 0.00 in0.0 mm 0.00 in0.0 mm 0.00 in0.0 mm
01:29 AM 49.6°F9.8°C 43.4°F6.3°C 79% Calm Calm -- 30.90 in1046.4 mb 0.00 in0.0 mm 0.00 in0.0 mm 0.00 in0.0 mm
01:25 AM 49.9°F9.9°C 44.0°F6.7°C 80% Calm Calm -- 30.85 in1044.7 mb 0.00 in0.0 mm 0.00 in0.0 mm 0.00 in0.0 mm
01:20 AM 49.8°F9.9°C 44.2°F6.8°C 81% Calm Calm -- 31.03 in1050.8 mb 0.00 in0.0 mm 0.00 in0.0 mm 0.00 in0.0 mm
01:15 AM 49.5°F9.7°C 44.2°F6.8°C 82% Calm Calm -- 30.98 in1049.1 mb 0.00 in0.0 mm 0.00 in0.0 mm 0.00 in0.0 mm
01:10 AM 49.2°F9.6°C 44.0°F6.7°C 82% Calm Calm -- 30.98 in1049.1 mb 0.00 in0.0 mm 0.00 in0.0 mm 0.00 in0.0 mm
01:05 AM 49.0°F9.4°C 43.8°F6.6°C 82% Calm Calm -- 30.91 in1046.7 mb 0.00 in0.0 mm 0.00 in0.0 mm 0.00 in0.0 mm
01:00 AM 49.3°F9.6°C 43.7°F6.5°C 81% Calm Calm -- 30.81 in1043.3 mb 0.00 in0.0 mm 0.00 in0.0 mm 0.00 in0.0 mm
12:55 AM 49.6°F9.8°C 44.0°F6.7°C 81% Calm Calm -- 30.81 in1043.3 mb 0.00 in0.0 mm 0.00 in0.0 mm 0.00 in0.0 mm
12:50 AM 49.7°F9.8°C 44.4°F6.9°C 82% Calm Calm -- 30.90 in1046.4 mb 0.00 in0.0 mm 0.00 in0.0 mm 0.00 in0.0 mm
12:45 AM 49.2°F9.6°C 44.9°F7.2°C 85% Calm Calm -- 30.94 in1047.7 mb 0.00 in0.0 mm 0.00 in0.0 mm 0.00 in0.0 mm
12:40 AM 48.4°F9.1°C 44.7°F7.1°C 87% Calm Calm -- 31.02 in1050.5 mb 0.00 in0.0 mm 0.00 in0.0 mm 0.00 in0.0 mm
12:35 AM 47.8°F8.8°C 44.1°F6.7°C 87% Calm Calm -- 31.03 in1050.8 mb 0.00 in0.0 mm 0.00 in0.0 mm 0.00 in0.0 mm
12:30 AM 47.4°F8.6°C 44.0°F6.7°C 88% Calm Calm -- 31.08 in1052.5 mb 0.00 in0.0 mm 0.00 in0.0 mm 0.00 in0.0 mm
12:25 AM 47.0°F8.3°C 43.6°F6.4°C 88% Calm Calm -- 31.08 in1052.5 mb 0.00 in0.0 mm 0.00 in0.0 mm 0.00 in0.0 mm
12:20 AM 46.7°F8.2°C 43.3°F6.3°C 88% Calm Calm -- 30.86 in1045.0 mb 0.00 in0.0 mm 0.00 in0.0 mm 0.00 in0.0 mm
12:15 AM 46.7°F8.2°C 43.3°F6.3°C 88% Calm Calm -- 30.86 in1045.0 mb 0.00 in0.0 mm 0.00 in0.0 mm 0.00 in0.0 mm
12:10 AM 46.8°F8.2°C 43.4°F6.3°C 88% Calm Calm -- 30.86 in1045.0 mb 0.00 in0.0 mm 0.00 in0.0 mm 0.00 in0.0 mm
12:05 AM 46.9°F8.3°C 43.5°F6.4°C 88% Calm Calm -- 30.92 in1047.1 mb 0.00 in0.0 mm 0.00 in0.0 mm 0.00 in0.0 mm
12:00 AM 47.1°F8.4°C 43.7°F6.5°C 88% Calm Calm -- 30.90 in1046.4 mb 0.00 in0.0 mm 0.00 in0.0 mm 0.00 in0.0 mm